sensor_id;sensor_type;location;lat;lon;timestamp;temperature;humidity
12872;DHT22;6504;53.766;9.626;2023-05-24T00:00:32;10.30;99.90
12872;DHT22;6504;53.766;9.626;2023-05-24T00:03:01;10.30;99.90
12872;DHT22;6504;53.766;9.626;2023-05-24T00:05:30;10.30;99.90
12872;DHT22;6504;53.766;9.626;2023-05-24T00:07:58;10.30;99.90
12872;DHT22;6504;53.766;9.626;2023-05-24T00:10:26;10.20;99.90
12872;DHT22;6504;53.766;9.626;2023-05-24T00:12:55;10.30;99.90
12872;DHT22;6504;53.766;9.626;2023-05-24T00:15:23;10.20;99.90
12872;DHT22;6504;53.766;9.626;2023-05-24T00:17:51;10.30;99.90
12872;DHT22;6504;53.766;9.626;2023-05-24T00:20:20;10.30;99.90
12872;DHT22;6504;53.766;9.626;2023-05-24T00:22:48;10.30;99.90
12872;DHT22;6504;53.766;9.626;2023-05-24T00:25:17;10.30;99.90
12872;DHT22;6504;53.766;9.626;2023-05-24T00:27:45;10.30;99.90
12872;DHT22;6504;53.766;9.626;2023-05-24T00:30:14;10.30;99.90
12872;DHT22;6504;53.766;9.626;2023-05-24T00:32:42;10.30;99.90
12872;DHT22;6504;53.766;9.626;2023-05-24T00:35:10;10.30;99.90
12872;DHT22;6504;53.766;9.626;2023-05-24T00:37:39;10.30;99.90
12872;DHT22;6504;53.766;9.626;2023-05-24T00:40:11;10.30;99.90
12872;DHT22;6504;53.766;9.626;2023-05-24T00:42:39;10.20;99.90
12872;DHT22;6504;53.766;9.626;2023-05-24T00:45:08;10.30;99.90
12872;DHT22;6504;53.766;9.626;2023-05-24T00:47:37;10.30;99.90
12872;DHT22;6504;53.766;9.626;2023-05-24T00:50:06;10.30;99.90
12872;DHT22;6504;53.766;9.626;2023-05-24T00:52:35;10.30;99.90
12872;DHT22;6504;53.766;9.626;2023-05-24T00:55:06;10.30;99.90
12872;DHT22;6504;53.766;9.626;2023-05-24T00:57:35;10.30;99.90
12872;DHT22;6504;53.766;9.626;2023-05-24T01:00:04;10.40;99.90
12872;DHT22;6504;53.766;9.626;2023-05-24T01:02:33;10.40;99.90
12872;DHT22;6504;53.766;9.626;2023-05-24T01:05:02;10.40;99.90
12872;DHT22;6504;53.766;9.626;2023-05-24T01:07:34;10.40;99.90
12872;DHT22;6504;53.766;9.626;2023-05-24T01:10:11;10.40;99.90
12872;DHT22;6504;53.766;9.626;2023-05-24T01:12:51;10.40;99.90
12872;DHT22;6504;53.766;9.626;2023-05-24T01:15:24;10.40;99.90
12872;DHT22;6504;53.766;9.626;2023-05-24T01:18:01;10.40;99.90
12872;DHT22;6504;53.766;9.626;2023-05-24T01:20:32;10.40;99.90
12872;DHT22;6504;53.766;9.626;2023-05-24T01:23:16;10.40;99.90
12872;DHT22;6504;53.766;9.626;2023-05-24T01:25:59;10.40;99.90
12872;DHT22;6504;53.766;9.626;2023-05-24T01:28:32;10.40;99.90
12872;DHT22;6504;53.766;9.626;2023-05-24T01:31:01;10.40;99.90
12872;DHT22;6504;53.766;9.626;2023-05-24T01:33:31;10.40;99.90
12872;DHT22;6504;53.766;9.626;2023-05-24T01:35:59;10.50;99.90
12872;DHT22;6504;53.766;9.626;2023-05-24T01:38:27;10.50;99.90
12872;DHT22;6504;53.766;9.626;2023-05-24T01:41:01;10.50;99.90
12872;DHT22;6504;53.766;9.626;2023-05-24T01:43:37;10.50;99.90
12872;DHT22;6504;53.766;9.626;2023-05-24T01:46:12;10.50;99.90
12872;DHT22;6504;53.766;9.626;2023-05-24T01:48:53;10.50;99.90
12872;DHT22;6504;53.766;9.626;2023-05-24T01:51:23;10.50;99.90
12872;DHT22;6504;53.766;9.626;2023-05-24T01:53:52;10.50;99.90
12872;DHT22;6504;53.766;9.626;2023-05-24T01:56:21;10.50;99.90
12872;DHT22;6504;53.766;9.626;2023-05-24T01:58:53;10.50;99.90
12872;DHT22;6504;53.766;9.626;2023-05-24T02:01:21;10.50;99.90
12872;DHT22;6504;53.766;9.626;2023-05-24T02:03:50;10.50;99.90
12872;DHT22;6504;53.766;9.626;2023-05-24T02:06:18;10.50;99.90
12872;DHT22;6504;53.766;9.626;2023-05-24T02:08:46;10.50;99.90
12872;DHT22;6504;53.766;9.626;2023-05-24T02:11:14;10.50;99.90
12872;DHT22;6504;53.766;9.626;2023-05-24T02:13:42;10.50;99.90
12872;DHT22;6504;53.766;9.626;2023-05-24T02:16:11;10.50;99.90
12872;DHT22;6504;53.766;9.626;2023-05-24T02:18:40;10.50;99.90
12872;DHT22;6504;53.766;9.626;2023-05-24T02:21:10;10.60;99.90
12872;DHT22;6504;53.766;9.626;2023-05-24T02:23:38;10.60;99.90
12872;DHT22;6504;53.766;9.626;2023-05-24T02:26:06;10.60;99.90
12872;DHT22;6504;53.766;9.626;2023-05-24T02:28:37;10.60;99.90
12872;DHT22;6504;53.766;9.626;2023-05-24T02:31:05;10.60;99.90
12872;DHT22;6504;53.766;9.626;2023-05-24T02:33:35;10.60;99.90
12872;DHT22;6504;53.766;9.626;2023-05-24T02:36:04;10.60;99.90
12872;DHT22;6504;53.766;9.626;2023-05-24T02:38:32;10.60;99.90
12872;DHT22;6504;53.766;9.626;2023-05-24T02:41:00;10.60;99.90
12872;DHT22;6504;53.766;9.626;2023-05-24T02:43:28;10.60;99.90
12872;DHT22;6504;53.766;9.626;2023-05-24T02:45:56;10.50;99.90
12872;DHT22;6504;53.766;9.626;2023-05-24T02:48:24;10.50;99.90
12872;DHT22;6504;53.766;9.626;2023-05-24T02:50:54;10.50;99.90
12872;DHT22;6504;53.766;9.626;2023-05-24T02:53:22;10.60;99.90
12872;DHT22;6504;53.766;9.626;2023-05-24T02:55:50;10.50;99.90
12872;DHT22;6504;53.766;9.626;2023-05-24T02:58:18;10.60;99.90
12872;DHT22;6504;53.766;9.626;2023-05-24T03:00:46;10.60;99.90
12872;DHT22;6504;53.766;9.626;2023-05-24T03:03:14;10.60;99.90
12872;DHT22;6504;53.766;9.626;2023-05-24T03:05:42;10.60;99.90
12872;DHT22;6504;53.766;9.626;2023-05-24T03:08:12;10.60;99.90
12872;DHT22;6504;53.766;9.626;2023-05-24T03:10:40;10.60;99.90
12872;DHT22;6504;53.766;9.626;2023-05-24T03:13:08;10.60;99.90
12872;DHT22;6504;53.766;9.626;2023-05-24T03:15:36;10.60;99.90
12872;DHT22;6504;53.766;9.626;2023-05-24T03:18:04;10.60;99.90
12872;DHT22;6504;53.766;9.626;2023-05-24T03:20:32;10.50;99.90
12872;DHT22;6504;53.766;9.626;2023-05-24T03:23:00;10.60;99.90
12872;DHT22;6504;53.766;9.626;2023-05-24T03:25:30;10.50;99.90
12872;DHT22;6504;53.766;9.626;2023-05-24T03:27:58;10.50;99.90
12872;DHT22;6504;53.766;9.626;2023-05-24T03:30:26;10.60;99.90
12872;DHT22;6504;53.766;9.626;2023-05-24T03:32:54;10.60;99.90
12872;DHT22;6504;53.766;9.626;2023-05-24T03:35:23;10.60;99.90
12872;DHT22;6504;53.766;9.626;2023-05-24T03:37:51;10.60;99.90
12872;DHT22;6504;53.766;9.626;2023-05-24T03:40:19;10.60;99.90
12872;DHT22;6504;53.766;9.626;2023-05-24T03:42:48;10.60;99.90
12872;DHT22;6504;53.766;9.626;2023-05-24T03:45:17;10.60;99.90
12872;DHT22;6504;53.766;9.626;2023-05-24T03:48:04;10.60;99.90
12872;DHT22;6504;53.766;9.626;2023-05-24T03:50:32;10.70;99.90
12872;DHT22;6504;53.766;9.626;2023-05-24T03:53:00;10.70;99.90
12872;DHT22;6504;53.766;9.626;2023-05-24T03:55:28;10.70;99.90
12872;DHT22;6504;53.766;9.626;2023-05-24T03:57:57;10.70;99.90
12872;DHT22;6504;53.766;9.626;2023-05-24T04:00:25;10.70;99.90
12872;DHT22;6504;53.766;9.626;2023-05-24T04:02:53;10.70;99.90
12872;DHT22;6504;53.766;9.626;2023-05-24T04:05:22;10.70;99.90
12872;DHT22;6504;53.766;9.626;2023-05-24T04:07:52;10.70;99.90
12872;DHT22;6504;53.766;9.626;2023-05-24T04:10:21;10.70;99.90
12872;DHT22;6504;53.766;9.626;2023-05-24T04:12:49;10.70;99.90
12872;DHT22;6504;53.766;9.626;2023-05-24T04:15:19;10.80;99.90
12872;DHT22;6504;53.766;9.626;2023-05-24T04:17:47;10.80;99.90
12872;DHT22;6504;53.766;9.626;2023-05-24T04:20:21;10.80;99.90
12872;DHT22;6504;53.766;9.626;2023-05-24T04:22:51;10.80;99.90
12872;DHT22;6504;53.766;9.626;2023-05-24T04:25:20;10.80;99.90
12872;DHT22;6504;53.766;9.626;2023-05-24T04:27:48;10.70;99.90
12872;DHT22;6504;53.766;9.626;2023-05-24T04:30:16;10.80;99.90
12872;DHT22;6504;53.766;9.626;2023-05-24T04:32:46;10.80;99.90
12872;DHT22;6504;53.766;9.626;2023-05-24T04:35:14;10.80;99.90
12872;DHT22;6504;53.766;9.626;2023-05-24T04:37:42;10.80;99.90
12872;DHT22;6504;53.766;9.626;2023-05-24T04:40:11;10.80;99.90
12872;DHT22;6504;53.766;9.626;2023-05-24T04:42:39;10.80;99.90
12872;DHT22;6504;53.766;9.626;2023-05-24T04:45:08;10.80;99.90
12872;DHT22;6504;53.766;9.626;2023-05-24T04:47:36;10.80;99.90
12872;DHT22;6504;53.766;9.626;2023-05-24T04:50:06;10.90;99.90
12872;DHT22;6504;53.766;9.626;2023-05-24T04:52:34;10.90;99.90
12872;DHT22;6504;53.766;9.626;2023-05-24T04:55:03;10.90;99.90
12872;DHT22;6504;53.766;9.626;2023-05-24T04:57:31;10.90;99.90
12872;DHT22;6504;53.766;9.626;2023-05-24T04:59:59;10.90;99.90
12872;DHT22;6504;53.766;9.626;2023-05-24T05:02:28;10.90;99.90
12872;DHT22;6504;53.766;9.626;2023-05-24T05:04:56;10.90;99.90
12872;DHT22;6504;53.766;9.626;2023-05-24T05:07:26;10.90;99.90
12872;DHT22;6504;53.766;9.626;2023-05-24T05:09:54;10.90;99.90
12872;DHT22;6504;53.766;9.626;2023-05-24T05:12:22;10.80;99.90
12872;DHT22;6504;53.766;9.626;2023-05-24T05:14:50;10.90;99.90
12872;DHT22;6504;53.766;9.626;2023-05-24T05:17:18;10.90;99.90
12872;DHT22;6504;53.766;9.626;2023-05-24T05:19:47;10.90;99.90
12872;DHT22;6504;53.766;9.626;2023-05-24T05:22:15;10.90;99.90
12872;DHT22;6504;53.766;9.626;2023-05-24T05:24:45;10.90;99.90
12872;DHT22;6504;53.766;9.626;2023-05-24T05:27:13;10.90;99.90
12872;DHT22;6504;53.766;9.626;2023-05-24T05:29:41;10.90;99.90
12872;DHT22;6504;53.766;9.626;2023-05-24T05:32:09;11.00;99.90
12872;DHT22;6504;53.766;9.626;2023-05-24T05:34:37;11.00;99.90
12872;DHT22;6504;53.766;9.626;2023-05-24T05:37:06;11.00;99.90
12872;DHT22;6504;53.766;9.626;2023-05-24T05:39:34;11.00;99.90
12872;DHT22;6504;53.766;9.626;2023-05-24T05:42:04;11.00;99.90
12872;DHT22;6504;53.766;9.626;2023-05-24T05:44:32;11.00;99.90
12872;DHT22;6504;53.766;9.626;2023-05-24T05:47:00;11.10;99.90
12872;DHT22;6504;53.766;9.626;2023-05-24T05:49:29;11.10;99.90
12872;DHT22;6504;53.766;9.626;2023-05-24T05:51:58;11.10;99.90
12872;DHT22;6504;53.766;9.626;2023-05-24T05:54:26;11.10;99.90
12872;DHT22;6504;53.766;9.626;2023-05-24T05:56:54;11.10;99.90
12872;DHT22;6504;53.766;9.626;2023-05-24T05:59:25;11.10;99.90
12872;DHT22;6504;53.766;9.626;2023-05-24T06:01:53;11.20;99.90
12872;DHT22;6504;53.766;9.626;2023-05-24T06:04:21;11.20;99.90
12872;DHT22;6504;53.766;9.626;2023-05-24T06:06:49;11.20;99.90
12872;DHT22;6504;53.766;9.626;2023-05-24T06:09:18;11.20;99.90
12872;DHT22;6504;53.766;9.626;2023-05-24T06:11:46;11.20;99.90
12872;DHT22;6504;53.766;9.626;2023-05-24T06:14:14;11.30;99.90
12872;DHT22;6504;53.766;9.626;2023-05-24T06:16:45;11.30;99.90
12872;DHT22;6504;53.766;9.626;2023-05-24T06:19:13;11.30;99.90
12872;DHT22;6504;53.766;9.626;2023-05-24T06:21:42;11.40;99.90
12872;DHT22;6504;53.766;9.626;2023-05-24T06:24:14;11.40;99.90
12872;DHT22;6504;53.766;9.626;2023-05-24T06:26:46;11.40;99.90
12872;DHT22;6504;53.766;9.626;2023-05-24T06:29:14;11.40;99.90
12872;DHT22;6504;53.766;9.626;2023-05-24T06:31:47;11.40;99.90
12872;DHT22;6504;53.766;9.626;2023-05-24T06:34:15;11.50;99.90
12872;DHT22;6504;53.766;9.626;2023-05-24T06:36:44;11.50;99.90
12872;DHT22;6504;53.766;9.626;2023-05-24T06:39:14;11.60;99.90
12872;DHT22;6504;53.766;9.626;2023-05-24T06:41:43;11.60;99.90
12872;DHT22;6504;53.766;9.626;2023-05-24T06:44:12;11.60;99.90
12872;DHT22;6504;53.766;9.626;2023-05-24T06:46:40;11.70;99.90
12872;DHT22;6504;53.766;9.626;2023-05-24T06:49:10;11.70;99.90
12872;DHT22;6504;53.766;9.626;2023-05-24T06:51:38;11.70;99.90
12872;DHT22;6504;53.766;9.626;2023-05-24T06:54:07;11.70;99.90
12872;DHT22;6504;53.766;9.626;2023-05-24T06:56:35;11.70;99.90
12872;DHT22;6504;53.766;9.626;2023-05-24T06:59:03;11.80;99.90
12872;DHT22;6504;53.766;9.626;2023-05-24T07:01:31;11.80;99.90
12872;DHT22;6504;53.766;9.626;2023-05-24T07:04:01;11.80;99.90
12872;DHT22;6504;53.766;9.626;2023-05-24T07:06:30;11.90;99.90
12872;DHT22;6504;53.766;9.626;2023-05-24T07:08:59;11.90;99.90
12872;DHT22;6504;53.766;9.626;2023-05-24T07:11:27;11.90;99.90
12872;DHT22;6504;53.766;9.626;2023-05-24T07:13:55;11.90;99.90
12872;DHT22;6504;53.766;9.626;2023-05-24T07:16:23;11.90;99.90
12872;DHT22;6504;53.766;9.626;2023-05-24T07:18:53;11.90;99.90
12872;DHT22;6504;53.766;9.626;2023-05-24T07:21:22;11.90;99.90
12872;DHT22;6504;53.766;9.626;2023-05-24T07:23:51;12.00;99.90
12872;DHT22;6504;53.766;9.626;2023-05-24T07:26:19;12.00;99.90
12872;DHT22;6504;53.766;9.626;2023-05-24T07:28:47;12.00;99.90
12872;DHT22;6504;53.766;9.626;2023-05-24T07:31:15;12.00;99.90
12872;DHT22;6504;53.766;9.626;2023-05-24T07:33:43;12.00;99.90
12872;DHT22;6504;53.766;9.626;2023-05-24T07:36:11;12.10;99.90
12872;DHT22;6504;53.766;9.626;2023-05-24T07:38:39;12.10;99.90
12872;DHT22;6504;53.766;9.626;2023-05-24T07:41:09;12.20;99.90
12872;DHT22;6504;53.766;9.626;2023-05-24T07:43:37;12.20;99.90
12872;DHT22;6504;53.766;9.626;2023-05-24T07:46:05;12.30;99.90
12872;DHT22;6504;53.766;9.626;2023-05-24T07:48:34;12.30;99.90
12872;DHT22;6504;53.766;9.626;2023-05-24T07:51:02;12.40;99.90
12872;DHT22;6504;53.766;9.626;2023-05-24T07:53:30;12.40;99.90
12872;DHT22;6504;53.766;9.626;2023-05-24T07:55:59;12.50;99.90
12872;DHT22;6504;53.766;9.626;2023-05-24T07:58:29;12.50;99.90
12872;DHT22;6504;53.766;9.626;2023-05-24T08:00:57;12.50;99.90
12872;DHT22;6504;53.766;9.626;2023-05-24T08:03:25;12.60;99.90
12872;DHT22;6504;53.766;9.626;2023-05-24T08:05:54;12.60;99.90
12872;DHT22;6504;53.766;9.626;2023-05-24T08:08:23;12.70;99.90
12872;DHT22;6504;53.766;9.626;2023-05-24T08:10:51;12.80;99.90
12872;DHT22;6504;53.766;9.626;2023-05-24T08:13:19;12.90;99.90
12872;DHT22;6504;53.766;9.626;2023-05-24T08:15:49;13.00;99.90
12872;DHT22;6504;53.766;9.626;2023-05-24T08:18:17;13.10;99.90
12872;DHT22;6504;53.766;9.626;2023-05-24T08:20:45;13.10;99.90
12872;DHT22;6504;53.766;9.626;2023-05-24T08:23:13;13.20;99.90
12872;DHT22;6504;53.766;9.626;2023-05-24T08:25:41;13.30;99.90
12872;DHT22;6504;53.766;9.626;2023-05-24T08:28:10;13.40;99.90
12872;DHT22;6504;53.766;9.626;2023-05-24T08:30:38;13.40;99.90
12872;DHT22;6504;53.766;9.626;2023-05-24T08:33:07;13.50;99.90
12872;DHT22;6504;53.766;9.626;2023-05-24T08:35:36;13.60;99.90
12872;DHT22;6504;53.766;9.626;2023-05-24T08:38:04;13.70;99.90
12872;DHT22;6504;53.766;9.626;2023-05-24T08:40:32;13.70;99.90
12872;DHT22;6504;53.766;9.626;2023-05-24T08:43:01;13.80;99.90
12872;DHT22;6504;53.766;9.626;2023-05-24T08:45:29;13.80;99.90
12872;DHT22;6504;53.766;9.626;2023-05-24T08:47:58;13.90;99.90
12872;DHT22;6504;53.766;9.626;2023-05-24T08:50:29;13.90;99.90
12872;DHT22;6504;53.766;9.626;2023-05-24T08:52:58;14.00;99.90
12872;DHT22;6504;53.766;9.626;2023-05-24T08:55:29;14.00;99.90
12872;DHT22;6504;53.766;9.626;2023-05-24T08:57:59;14.10;99.90
12872;DHT22;6504;53.766;9.626;2023-05-24T09:00:27;14.10;99.90
12872;DHT22;6504;53.766;9.626;2023-05-24T09:02:56;14.20;99.90
12872;DHT22;6504;53.766;9.626;2023-05-24T09:05:27;14.10;99.90
12872;DHT22;6504;53.766;9.626;2023-05-24T09:07:56;14.10;99.90
12872;DHT22;6504;53.766;9.626;2023-05-24T09:10:27;14.20;99.90
12872;DHT22;6504;53.766;9.626;2023-05-24T09:13:11;14.10;99.90
12872;DHT22;6504;53.766;9.626;2023-05-24T09:15:41;14.00;99.90
12872;DHT22;6504;53.766;9.626;2023-05-24T09:18:10;13.90;99.90
12872;DHT22;6504;53.766;9.626;2023-05-24T09:20:40;13.90;99.90
12872;DHT22;6504;53.766;9.626;2023-05-24T09:23:08;13.80;99.90
12872;DHT22;6504;53.766;9.626;2023-05-24T09:25:42;13.80;99.90
12872;DHT22;6504;53.766;9.626;2023-05-24T09:28:12;13.70;99.90
12872;DHT22;6504;53.766;9.626;2023-05-24T09:30:42;13.70;99.90
12872;DHT22;6504;53.766;9.626;2023-05-24T09:33:11;13.80;99.90
12872;DHT22;6504;53.766;9.626;2023-05-24T09:35:42;13.80;99.90
12872;DHT22;6504;53.766;9.626;2023-05-24T09:38:15;13.80;99.90
12872;DHT22;6504;53.766;9.626;2023-05-24T09:40:45;13.80;99.90
12872;DHT22;6504;53.766;9.626;2023-05-24T09:43:13;13.90;99.90
12872;DHT22;6504;53.766;9.626;2023-05-24T09:45:42;13.90;99.90
12872;DHT22;6504;53.766;9.626;2023-05-24T09:48:13;14.00;99.90
12872;DHT22;6504;53.766;9.626;2023-05-24T09:50:42;14.00;99.90
12872;DHT22;6504;53.766;9.626;2023-05-24T09:53:16;14.10;99.90
12872;DHT22;6504;53.766;9.626;2023-05-24T09:55:44;14.00;99.90
12872;DHT22;6504;53.766;9.626;2023-05-24T09:58:12;14.10;99.90
12872;DHT22;6504;53.766;9.626;2023-05-24T10:00:42;14.10;99.90
12872;DHT22;6504;53.766;9.626;2023-05-24T10:03:11;14.10;99.90
12872;DHT22;6504;53.766;9.626;2023-05-24T10:05:43;14.10;99.90
12872;DHT22;6504;53.766;9.626;2023-05-24T10:08:12;14.10;99.90
12872;DHT22;6504;53.766;9.626;2023-05-24T10:10:41;14.20;99.90
12872;DHT22;6504;53.766;9.626;2023-05-24T10:13:11;14.20;99.90
12872;DHT22;6504;53.766;9.626;2023-05-24T10:15:42;14.30;99.90
12872;DHT22;6504;53.766;9.626;2023-05-24T10:18:10;14.30;99.90
12872;DHT22;6504;53.766;9.626;2023-05-24T10:20:41;14.40;99.90
12872;DHT22;6504;53.766;9.626;2023-05-24T10:23:14;14.40;99.90
12872;DHT22;6504;53.766;9.626;2023-05-24T10:25:48;14.50;99.90
12872;DHT22;6504;53.766;9.626;2023-05-24T10:28:17;14.50;99.90
12872;DHT22;6504;53.766;9.626;2023-05-24T10:30:55;14.60;99.90
12872;DHT22;6504;53.766;9.626;2023-05-24T10:33:27;14.60;99.90
12872;DHT22;6504;53.766;9.626;2023-05-24T10:35:57;14.70;99.90
12872;DHT22;6504;53.766;9.626;2023-05-24T10:38:26;14.80;99.90
12872;DHT22;6504;53.766;9.626;2023-05-24T10:40:54;14.80;99.90
12872;DHT22;6504;53.766;9.626;2023-05-24T10:43:22;14.90;99.90
12872;DHT22;6504;53.766;9.626;2023-05-24T10:45:51;14.90;99.90
12872;DHT22;6504;53.766;9.626;2023-05-24T10:48:38;15.00;99.90
12872;DHT22;6504;53.766;9.626;2023-05-24T10:51:33;15.00;99.90
12872;DHT22;6504;53.766;9.626;2023-05-24T10:54:16;15.00;99.90
12872;DHT22;6504;53.766;9.626;2023-05-24T10:56:46;15.10;99.90
12872;DHT22;6504;53.766;9.626;2023-05-24T10:59:28;15.20;99.90
12872;DHT22;6504;53.766;9.626;2023-05-24T11:01:57;15.30;99.90
12872;DHT22;6504;53.766;9.626;2023-05-24T11:04:30;15.40;99.90
12872;DHT22;6504;53.766;9.626;2023-05-24T11:07:04;15.40;99.90
12872;DHT22;6504;53.766;9.626;2023-05-24T11:09:35;15.40;99.90
12872;DHT22;6504;53.766;9.626;2023-05-24T11:12:07;15.50;99.90
12872;DHT22;6504;53.766;9.626;2023-05-24T11:14:36;15.50;99.90
12872;DHT22;6504;53.766;9.626;2023-05-24T11:17:07;15.50;99.90
12872;DHT22;6504;53.766;9.626;2023-05-24T11:19:36;15.60;99.90
12872;DHT22;6504;53.766;9.626;2023-05-24T11:22:07;15.60;99.90
12872;DHT22;6504;53.766;9.626;2023-05-24T11:24:35;15.70;99.90
12872;DHT22;6504;53.766;9.626;2023-05-24T11:27:04;15.70;99.90
12872;DHT22;6504;53.766;9.626;2023-05-24T11:29:39;15.80;99.90
12872;DHT22;6504;53.766;9.626;2023-05-24T11:32:08;15.80;99.90
12872;DHT22;6504;53.766;9.626;2023-05-24T11:34:37;15.80;99.90
12872;DHT22;6504;53.766;9.626;2023-05-24T11:37:07;15.90;99.90
12872;DHT22;6504;53.766;9.626;2023-05-24T11:39:36;15.90;99.90
12872;DHT22;6504;53.766;9.626;2023-05-24T11:42:06;16.00;99.90
12872;DHT22;6504;53.766;9.626;2023-05-24T11:44:35;16.00;99.90
12872;DHT22;6504;53.766;9.626;2023-05-24T11:47:06;16.10;99.90
12872;DHT22;6504;53.766;9.626;2023-05-24T11:49:34;16.10;99.90
12872;DHT22;6504;53.766;9.626;2023-05-24T11:52:02;16.20;99.90
12872;DHT22;6504;53.766;9.626;2023-05-24T11:54:32;16.30;99.90
12872;DHT22;6504;53.766;9.626;2023-05-24T11:57:00;16.40;99.90
12872;DHT22;6504;53.766;9.626;2023-05-24T11:59:29;16.50;99.90
12872;DHT22;6504;53.766;9.626;2023-05-24T12:01:58;16.60;99.90
12872;DHT22;6504;53.766;9.626;2023-05-24T12:04:27;16.70;99.90
12872;DHT22;6504;53.766;9.626;2023-05-24T12:06:56;16.90;99.90
12872;DHT22;6504;53.766;9.626;2023-05-24T12:09:25;17.10;99.90
12872;DHT22;6504;53.766;9.626;2023-05-24T12:11:55;17.30;99.90
12872;DHT22;6504;53.766;9.626;2023-05-24T12:14:27;17.40;99.90
12872;DHT22;6504;53.766;9.626;2023-05-24T12:16:57;17.50;99.90
12872;DHT22;6504;53.766;9.626;2023-05-24T12:19:29;17.70;99.90
12872;DHT22;6504;53.766;9.626;2023-05-24T12:22:03;17.80;99.90
12872;DHT22;6504;53.766;9.626;2023-05-24T12:24:32;17.90;99.90
12872;DHT22;6504;53.766;9.626;2023-05-24T12:27:02;18.00;99.90
12872;DHT22;6504;53.766;9.626;2023-05-24T12:29:33;18.00;99.90
12872;DHT22;6504;53.766;9.626;2023-05-24T12:32:05;18.00;99.90
12872;DHT22;6504;53.766;9.626;2023-05-24T12:34:39;18.00;99.90
12872;DHT22;6504;53.766;9.626;2023-05-24T12:37:08;17.90;99.90
12872;DHT22;6504;53.766;9.626;2023-05-24T12:39:38;17.90;99.90
12872;DHT22;6504;53.766;9.626;2023-05-24T12:42:10;17.70;99.90
12872;DHT22;6504;53.766;9.626;2023-05-24T12:44:39;17.60;99.90
12872;DHT22;6504;53.766;9.626;2023-05-24T12:47:08;17.40;99.90
12872;DHT22;6504;53.766;9.626;2023-05-24T12:49:37;17.20;99.90
12872;DHT22;6504;53.766;9.626;2023-05-24T12:52:05;17.10;99.90
12872;DHT22;6504;53.766;9.626;2023-05-24T12:54:33;17.00;99.90
12872;DHT22;6504;53.766;9.626;2023-05-24T12:57:02;16.90;99.90
12872;DHT22;6504;53.766;9.626;2023-05-24T12:59:32;16.90;99.90
12872;DHT22;6504;53.766;9.626;2023-05-24T13:02:00;16.80;99.90
12872;DHT22;6504;53.766;9.626;2023-05-24T13:04:28;16.80;99.90
12872;DHT22;6504;53.766;9.626;2023-05-24T13:07:00;16.80;99.90
12872;DHT22;6504;53.766;9.626;2023-05-24T13:09:28;16.70;99.90
12872;DHT22;6504;53.766;9.626;2023-05-24T13:11:56;16.80;99.90
12872;DHT22;6504;53.766;9.626;2023-05-24T13:14:24;16.70;99.90
12872;DHT22;6504;53.766;9.626;2023-05-24T13:16:54;16.70;99.90
12872;DHT22;6504;53.766;9.626;2023-05-24T13:19:22;16.70;99.90
12872;DHT22;6504;53.766;9.626;2023-05-24T13:21:50;16.60;99.90
12872;DHT22;6504;53.766;9.626;2023-05-24T13:24:19;16.60;99.90
12872;DHT22;6504;53.766;9.626;2023-05-24T13:26:47;16.60;99.90
12872;DHT22;6504;53.766;9.626;2023-05-24T13:29:18;16.60;99.90
12872;DHT22;6504;53.766;9.626;2023-05-24T13:32:06;16.60;99.90
12872;DHT22;6504;53.766;9.626;2023-05-24T13:34:35;16.60;99.90
12872;DHT22;6504;53.766;9.626;2023-05-24T13:37:03;16.50;99.90
12872;DHT22;6504;53.766;9.626;2023-05-24T13:39:31;16.50;99.90
12872;DHT22;6504;53.766;9.626;2023-05-24T13:41:59;16.60;99.90
12872;DHT22;6504;53.766;9.626;2023-05-24T13:44:27;16.70;99.90
12872;DHT22;6504;53.766;9.626;2023-05-24T13:46:56;16.90;99.90
12872;DHT22;6504;53.766;9.626;2023-05-24T13:49:26;17.10;99.90
12872;DHT22;6504;53.766;9.626;2023-05-24T13:51:54;17.30;99.90
12872;DHT22;6504;53.766;9.626;2023-05-24T13:54:24;17.40;99.90
12872;DHT22;6504;53.766;9.626;2023-05-24T13:56:53;17.40;99.90
12872;DHT22;6504;53.766;9.626;2023-05-24T13:59:23;17.40;99.90
12872;DHT22;6504;53.766;9.626;2023-05-24T14:01:51;17.40;99.90
12872;DHT22;6504;53.766;9.626;2023-05-24T14:04:19;17.40;99.90
12872;DHT22;6504;53.766;9.626;2023-05-24T14:06:49;17.40;99.90
12872;DHT22;6504;53.766;9.626;2023-05-24T14:09:17;17.40;99.90
12872;DHT22;6504;53.766;9.626;2023-05-24T14:11:47;17.30;99.90
12872;DHT22;6504;53.766;9.626;2023-05-24T14:14:15;17.20;99.90
12872;DHT22;6504;53.766;9.626;2023-05-24T14:16:47;17.20;99.90
12872;DHT22;6504;53.766;9.626;2023-05-24T14:19:21;17.20;99.90
12872;DHT22;6504;53.766;9.626;2023-05-24T14:21:50;17.20;99.90
12872;DHT22;6504;53.766;9.626;2023-05-24T14:24:18;17.20;99.90
12872;DHT22;6504;53.766;9.626;2023-05-24T14:26:46;17.20;99.90
12872;DHT22;6504;53.766;9.626;2023-05-24T14:29:14;17.20;99.90
12872;DHT22;6504;53.766;9.626;2023-05-24T14:31:42;17.30;99.90
12872;DHT22;6504;53.766;9.626;2023-05-24T14:34:10;17.30;99.90
12872;DHT22;6504;53.766;9.626;2023-05-24T14:36:39;17.30;99.90
12872;DHT22;6504;53.766;9.626;2023-05-24T14:39:08;17.20;99.90
12872;DHT22;6504;53.766;9.626;2023-05-24T14:41:36;17.20;99.90
12872;DHT22;6504;53.766;9.626;2023-05-24T14:44:04;17.10;99.90
12872;DHT22;6504;53.766;9.626;2023-05-24T14:46:33;17.10;99.90
12872;DHT22;6504;53.766;9.626;2023-05-24T14:49:01;17.10;99.90
12872;DHT22;6504;53.766;9.626;2023-05-24T14:51:30;17.10;99.90
12872;DHT22;6504;53.766;9.626;2023-05-24T14:53:58;17.10;99.90
12872;DHT22;6504;53.766;9.626;2023-05-24T14:56:27;17.10;99.90
12872;DHT22;6504;53.766;9.626;2023-05-24T14:58:56;17.10;99.90
12872;DHT22;6504;53.766;9.626;2023-05-24T15:01:25;17.00;99.90
12872;DHT22;6504;53.766;9.626;2023-05-24T15:03:53;17.10;99.90
12872;DHT22;6504;53.766;9.626;2023-05-24T15:06:21;17.00;99.90
12872;DHT22;6504;53.766;9.626;2023-05-24T15:08:49;16.90;99.90
12872;DHT22;6504;53.766;9.626;2023-05-24T15:11:17;16.90;99.90
12872;DHT22;6504;53.766;9.626;2023-05-24T15:13:47;16.90;99.90
12872;DHT22;6504;53.766;9.626;2023-05-24T15:16:15;16.80;99.90
12872;DHT22;6504;53.766;9.626;2023-05-24T15:18:43;16.80;99.90
12872;DHT22;6504;53.766;9.626;2023-05-24T15:21:12;16.90;99.90
12872;DHT22;6504;53.766;9.626;2023-05-24T15:23:40;16.90;99.90
12872;DHT22;6504;53.766;9.626;2023-05-24T15:26:08;16.90;99.90
12872;DHT22;6504;53.766;9.626;2023-05-24T15:28:36;16.90;99.90
12872;DHT22;6504;53.766;9.626;2023-05-24T15:31:05;16.90;99.90
12872;DHT22;6504;53.766;9.626;2023-05-24T15:33:34;17.00;99.90
12872;DHT22;6504;53.766;9.626;2023-05-24T15:36:02;17.10;99.90
12872;DHT22;6504;53.766;9.626;2023-05-24T15:38:32;17.20;99.90
12872;DHT22;6504;53.766;9.626;2023-05-24T15:41:00;17.20;99.90
12872;DHT22;6504;53.766;9.626;2023-05-24T15:43:29;17.30;99.90
12872;DHT22;6504;53.766;9.626;2023-05-24T15:45:57;17.30;99.90
12872;DHT22;6504;53.766;9.626;2023-05-24T15:48:27;17.30;99.90
12872;DHT22;6504;53.766;9.626;2023-05-24T15:50:55;17.30;99.90
12872;DHT22;6504;53.766;9.626;2023-05-24T15:53:43;17.30;99.90
12872;DHT22;6504;53.766;9.626;2023-05-24T15:56:11;17.20;99.90
12872;DHT22;6504;53.766;9.626;2023-05-24T15:58:39;17.20;99.90